Time;durP1;ratioP1;P1;durP2;ratioP2;P2;SDS_P1;SDS_P2;PMS_P1;PMS_P2;Temp;Humidity;BMP_temperature;BMP_pressure;BME280_temperature;BME280_humidity;BME280_pressure;Samples;Min_cycle;Max_cycle;Signal;HPM_P1;HPM_P2
2022/03/18 00:00:21;;;;;;;25.98;14.00;;;13.20;99.90;;;;;;5051951;28;20501;-69
2022/03/18 00:02:50;;;;;;;24.58;14.68;;;13.20;99.90;;;;;;5049849;28;20078;-69
2022/03/18 00:05:17;;;;;;;27.67;15.15;;;13.20;99.90;;;;;;5044379;28;20081;-69
2022/03/18 00:07:44;;;;;;;25.10;15.02;;;13.20;99.90;;;;;;5047412;28;20021;-69
2022/03/18 00:10:11;;;;;;;22.38;14.55;;;13.20;99.90;;;;;;5043658;28;20025;-69
2022/03/18 00:12:37;;;;;;;26.00;15.93;;;13.20;99.90;;;;;;5049464;28;20543;-69
2022/03/18 00:15:05;;;;;;;25.73;15.27;;;13.30;99.90;;;;;;5050246;28;20048;-69
2022/03/18 00:17:31;;;;;;;23.25;14.68;;;13.20;99.90;;;;;;5044781;28;20492;-69
2022/03/18 00:19:57;;;;;;;26.38;16.15;;;13.20;99.90;;;;;;5052570;28;20071;-69
2022/03/18 00:22:23;;;;;;;29.10;16.77;;;13.20;99.90;;;;;;5044988;28;20087;-69
2022/03/18 00:24:49;;;;;;;26.63;16.58;;;13.20;99.90;;;;;;5049018;28;20048;-69
2022/03/18 00:27:15;;;;;;;29.15;16.80;;;13.20;99.90;;;;;;5051378;28;20029;-69
2022/03/18 00:29:42;;;;;;;31.77;16.67;;;13.20;99.90;;;;;;5048540;28;20549;-69
2022/03/18 00:32:09;;;;;;;28.98;17.00;;;13.20;99.90;;;;;;5045151;28;20029;-69
2022/03/18 00:34:35;;;;;;;30.17;16.63;;;13.20;99.90;;;;;;5046196;28;20033;-69
2022/03/18 00:37:01;;;;;;;31.75;17.45;;;13.20;99.90;;;;;;5048084;28;20041;-68
2022/03/18 00:39:27;;;;;;;27.67;17.05;;;13.20;99.90;;;;;;5052077;28;20028;-68
2022/03/18 00:41:53;;;;;;;28.90;17.73;;;13.20;99.90;;;;;;5050435;28;20511;-68
2022/03/18 00:44:19;;;;;;;33.35;17.65;;;13.10;99.90;;;;;;5045990;28;20036;-68
2022/03/18 00:46:44;;;;;;;28.77;17.27;;;13.10;99.90;;;;;;5045102;28;20021;-68
2022/03/18 00:52:04;;;;;;;;;;;13.10;99.90;;;;;;5056309;28;20044;-68
2022/03/18 00:54:31;;;;;;;28.70;16.95;;;13.10;99.90;;;;;;5048758;28;19960;-69
2022/03/18 00:56:57;;;;;;;28.38;16.92;;;13.10;99.90;;;;;;5049004;28;20037;-68
2022/03/18 00:59:22;;;;;;;30.98;17.30;;;13.10;99.90;;;;;;5046617;28;20037;-69
2022/03/18 01:01:52;;;;;;;28.92;17.75;;;13.10;99.90;;;;;;5048588;28;20021;-69
2022/03/18 01:04:23;;;;;;;29.75;17.15;;;13.10;99.90;;;;;;5046658;28;20037;-69
2022/03/18 01:06:50;;;;;;;29.55;18.27;;;13.10;99.90;;;;;;5055222;28;20516;-69
2022/03/18 01:09:16;;;;;;;31.65;17.25;;;13.10;99.90;;;;;;5048267;28;20043;-69
2022/03/18 01:11:42;;;;;;;27.30;16.52;;;13.10;99.90;;;;;;5048535;28;20480;-69
2022/03/18 01:14:08;;;;;;;28.05;16.85;;;13.00;99.90;;;;;;5045933;28;20041;-69
2022/03/18 01:16:34;;;;;;;29.48;18.33;;;13.00;99.90;;;;;;5051862;28;20045;-69
2022/03/18 01:19:00;;;;;;;29.35;17.80;;;13.00;99.90;;;;;;5052538;28;20402;-69
2022/03/18 01:21:26;;;;;;;32.55;17.88;;;13.00;99.90;;;;;;5048732;28;20029;-69
2022/03/18 01:23:52;;;;;;;28.25;18.25;;;13.00;99.90;;;;;;5046308;28;20029;-69
2022/03/18 01:26:18;;;;;;;30.38;18.35;;;13.00;99.90;;;;;;5052412;28;20086;-69
2022/03/18 01:28:43;;;;;;;25.15;16.13;;;13.10;99.90;;;;;;5052669;28;20032;-69
2022/03/18 01:31:12;;;;;;;34.03;17.67;;;13.00;99.90;;;;;;5053139;28;20029;-69
2022/03/18 01:33:38;;;;;;;27.45;17.20;;;13.00;99.90;;;;;;5052628;28;20029;-69
2022/03/18 01:36:04;;;;;;;28.48;16.65;;;13.00;99.90;;;;;;5051433;28;20032;-69
2022/03/18 01:38:31;;;;;;;32.30;19.00;;;13.00;99.90;;;;;;5052519;28;20028;-69
2022/03/18 01:40:57;;;;;;;29.42;17.27;;;13.00;99.90;;;;;;5052122;28;20036;-69
2022/03/18 01:43:23;;;;;;;32.20;17.45;;;13.00;99.90;;;;;;5052434;28;20503;-69
2022/03/18 01:45:50;;;;;;;29.58;18.15;;;13.00;99.90;;;;;;5053116;28;20033;-69
2022/03/18 01:48:17;;;;;;;31.48;19.00;;;12.90;99.90;;;;;;5052899;28;20059;-69
2022/03/18 01:50:43;;;;;;;34.17;19.00;;;12.90;99.90;;;;;;5044342;28;20468;-69
2022/03/18 01:53:10;;;;;;;27.75;18.83;;;12.90;99.90;;;;;;5052250;28;20421;-69
2022/03/18 01:55:37;;;;;;;29.95;18.85;;;12.90;99.90;;;;;;5050459;28;20099;-69
2022/03/18 01:58:04;;;;;;;30.23;17.95;;;12.80;99.90;;;;;;5052992;28;20489;-69
2022/03/18 02:00:30;;;;;;;31.83;18.10;;;12.80;99.90;;;;;;5052267;28;20032;-69
2022/03/18 02:02:57;;;;;;;32.50;19.65;;;12.80;99.90;;;;;;5052503;28;20438;-69
2022/03/18 02:05:24;;;;;;;28.77;18.13;;;12.80;99.90;;;;;;5044530;28;20067;-69
2022/03/18 02:07:50;;;;;;;34.50;19.42;;;12.80;99.90;;;;;;5051323;28;20708;-69
2022/03/18 02:10:16;;;;;;;31.38;18.70;;;12.80;99.90;;;;;;5051962;28;20116;-69
2022/03/18 02:12:42;;;;;;;35.35;19.63;;;12.80;99.90;;;;;;5058531;28;20447;-69
2022/03/18 02:15:11;;;;;;;35.95;20.10;;;12.80;99.90;;;;;;5058787;28;20090;-69
2022/03/18 02:17:37;;;;;;;33.78;20.73;;;12.80;99.90;;;;;;5058971;28;20111;-69
2022/03/18 02:20:03;;;;;;;31.50;18.83;;;12.80;99.90;;;;;;5058247;28;20569;-69
2022/03/18 02:22:37;;;;;;;37.45;19.38;;;12.80;99.90;;;;;;5058951;28;20321;-69
2022/03/18 02:25:04;;;;;;;33.78;20.40;;;12.80;99.90;;;;;;5058930;28;20029;-69
2022/03/18 02:27:31;;;;;;;31.63;19.77;;;12.80;99.90;;;;;;5058593;28;20063;-69
2022/03/18 02:29:56;;;;;;;33.17;21.08;;;12.80;99.90;;;;;;5059413;28;20100;-69
2022/03/18 02:32:23;;;;;;;34.90;21.05;;;12.80;99.90;;;;;;5058170;28;20051;-69
2022/03/18 02:34:50;;;;;;;35.80;19.65;;;12.80;99.90;;;;;;5049010;28;20060;-69
2022/03/18 02:37:15;;;;;;;33.33;20.30;;;12.80;99.90;;;;;;5058588;28;20048;-69
2022/03/18 02:39:41;;;;;;;39.58;21.45;;;12.80;99.90;;;;;;5058583;28;20028;-69
2022/03/18 02:42:07;;;;;;;36.65;20.88;;;12.90;99.90;;;;;;5058773;28;20103;-68
2022/03/18 02:44:33;;;;;;;34.13;22.52;;;12.80;99.90;;;;;;5058965;28;20071;-68
2022/03/18 02:46:59;;;;;;;36.13;20.80;;;12.80;99.90;;;;;;5058655;28;20098;-69
2022/03/18 02:49:25;;;;;;;33.63;20.40;;;12.80;99.90;;;;;;5059122;28;20474;-68
2022/03/18 02:51:52;;;;;;;34.75;20.58;;;12.80;99.90;;;;;;5054948;28;20028;-69
2022/03/18 02:54:17;;;;;;;35.72;21.05;;;12.80;99.90;;;;;;5049962;28;20401;-69
2022/03/18 02:56:43;;;;;;;33.35;20.73;;;12.80;99.90;;;;;;5052130;28;20025;-68
2022/03/18 02:59:09;;;;;;;37.15;20.38;;;12.70;99.90;;;;;;5050922;28;20025;-69
2022/03/18 03:01:35;;;;;;;33.58;20.73;;;12.80;99.90;;;;;;5052960;28;20042;-69
2022/03/18 03:04:01;;;;;;;36.40;21.55;;;12.80;99.90;;;;;;5046284;28;20029;-68
2022/03/18 03:09:13;;;;;;;36.45;21.35;;;12.70;99.90;;;;;;5052935;28;20044;-69
2022/03/18 03:11:39;;;;;;;36.38;21.52;;;12.70;99.90;;;;;;5059015;28;20090;-68
2022/03/18 03:14:05;;;;;;;38.67;20.95;;;12.70;99.90;;;;;;5057561;28;20505;-69
2022/03/18 03:16:31;;;;;;;34.38;20.02;;;12.70;99.90;;;;;;5058618;28;20037;-69
2022/03/18 03:18:57;;;;;;;38.40;23.67;;;12.60;99.90;;;;;;5058476;28;20435;-69
2022/03/18 03:21:23;;;;;;;35.63;21.80;;;12.60;99.90;;;;;;5059525;28;20067;-69
2022/03/18 03:23:48;;;;;;;37.88;21.90;;;12.70;99.90;;;;;;5055491;28;20048;-68
2022/03/18 03:26:14;;;;;;;36.80;22.05;;;12.60;99.90;;;;;;5055256;28;20025;-68
2022/03/18 03:28:43;;;;;;;36.40;22.40;;;12.70;99.90;;;;;;5054710;28;20029;-69
2022/03/18 03:31:08;;;;;;;39.58;22.65;;;12.70;99.90;;;;;;5052795;28;20409;-69
2022/03/18 03:33:34;;;;;;;36.22;21.67;;;12.60;99.90;;;;;;5047219;28;20044;-69
2022/03/18 03:36:00;;;;;;;36.55;22.40;;;12.70;99.90;;;;;;5051254;28;20111;-69
2022/03/18 03:38:26;;;;;;;38.13;21.52;;;12.70;99.90;;;;;;5047455;28;20112;-69
2022/03/18 03:40:52;;;;;;;36.97;21.73;;;12.60;99.90;;;;;;5047276;28;20680;-69
2022/03/18 03:43:18;;;;;;;37.72;22.77;;;12.60;99.90;;;;;;5066781;28;20056;-69
2022/03/18 03:45:44;;;;;;;37.88;22.45;;;12.60;99.90;;;;;;5047088;28;20497;-69
2022/03/18 03:48:13;;;;;;;39.55;23.15;;;12.60;99.90;;;;;;5050669;28;20021;-69
2022/03/18 03:50:43;;;;;;;36.38;22.13;;;12.70;99.90;;;;;;5048644;28;20497;-69
2022/03/18 03:53:12;;;;;;;40.33;22.67;;;12.70;99.90;;;;;;5046145;28;20026;-69
2022/03/18 03:55:39;;;;;;;36.47;22.83;;;12.60;99.90;;;;;;5049275;28;20055;-69
2022/03/18 03:58:09;;;;;;;37.65;22.02;;;12.60;99.90;;;;;;5047929;28;20079;-69
2022/03/18 04:00:38;;;;;;;40.00;22.48;;;12.60;99.90;;;;;;5050072;28;20061;-69
2022/03/18 04:03:05;;;;;;;32.53;20.67;;;12.60;99.90;;;;;;5051117;28;20036;-69
2022/03/18 04:05:32;;;;;;;38.70;22.25;;;12.60;99.90;;;;;;5053122;28;20041;-69
2022/03/18 04:07:58;;;;;;;35.00;22.55;;;12.60;99.90;;;;;;5045253;28;20033;-69
2022/03/18 04:10:25;;;;;;;38.40;22.02;;;12.50;99.90;;;;;;5049996;28;20036;-69
2022/03/18 04:12:51;;;;;;;34.63;22.30;;;12.50;99.90;;;;;;5046289;28;20085;-69
2022/03/18 04:15:17;;;;;;;38.17;22.63;;;12.50;99.90;;;;;;5048950;28;20140;-68
2022/03/18 04:17:48;;;;;;;38.55;23.02;;;12.40;99.90;;;;;;5048641;28;20493;-69
2022/03/18 04:20:16;;;;;;;38.50;21.73;;;12.40;99.90;;;;;;5046498;28;20609;-69
2022/03/18 04:22:42;;;;;;;38.80;22.45;;;12.40;99.90;;;;;;5046065;28;20087;-69
2022/03/18 04:25:09;;;;;;;37.33;23.35;;;12.40;99.90;;;;;;5046917;28;20029;-69
2022/03/18 04:27:35;;;;;;;38.22;22.30;;;12.40;99.90;;;;;;5046630;28;20489;-69
2022/03/18 04:30:03;;;;;;;39.03;22.02;;;12.40;99.90;;;;;;5050835;28;20485;-69
2022/03/18 04:32:29;;;;;;;37.60;22.92;;;12.40;99.90;;;;;;5047520;28;20391;-68
2022/03/18 04:34:55;;;;;;;36.72;22.15;;;12.30;99.90;;;;;;5045296;28;20037;-69
2022/03/18 04:37:20;;;;;;;42.42;23.20;;;12.40;99.90;;;;;;5049407;28;20100;-68
2022/03/18 04:39:46;;;;;;;39.67;22.63;;;12.30;99.90;;;;;;5048952;28;20033;-69
2022/03/18 04:42:12;;;;;;;38.40;22.55;;;12.30;99.90;;;;;;5053730;28;20399;-68
2022/03/18 04:44:38;;;;;;;41.20;23.70;;;12.30;99.90;;;;;;5049941;28;20468;-68
2022/03/18 04:47:04;;;;;;;39.83;23.08;;;12.30;99.90;;;;;;5047878;28;20112;-68
2022/03/18 04:49:30;;;;;;;41.35;23.70;;;12.30;99.90;;;;;;5049357;28;20043;-68
2022/03/18 04:51:56;;;;;;;40.60;23.27;;;12.30;99.90;;;;;;5048162;28;20433;-68
2022/03/18 04:54:22;;;;;;;36.10;21.88;;;12.30;99.90;;;;;;5051016;28;20499;-68
2022/03/18 04:59:38;;;;;;;39.80;23.27;;;12.30;99.90;;;;;;5049492;28;20039;-68
2022/03/18 05:02:04;;;;;;;43.70;24.05;;;12.20;99.90;;;;;;5051243;28;20060;-69
2022/03/18 05:04:30;;;;;;;42.13;23.45;;;12.30;99.90;;;;;;5045505;28;20033;-68
2022/03/18 05:06:55;;;;;;;40.85;24.05;;;12.30;99.90;;;;;;5045756;28;20474;-69
2022/03/18 05:09:23;;;;;;;41.67;23.42;;;12.30;99.90;;;;;;5050979;28;20043;-68
2022/03/18 05:11:48;;;;;;;44.35;25.33;;;12.20;99.90;;;;;;5050207;28;20028;-68
2022/03/18 05:14:15;;;;;;;40.13;23.35;;;12.20;99.90;;;;;;5047379;28;20394;-69
2022/03/18 05:16:42;;;;;;;44.90;24.80;;;12.20;99.90;;;;;;5044333;28;20089;-69
2022/03/18 05:19:09;;;;;;;41.08;23.05;;;12.20;99.90;;;;;;5044830;28;20491;-68
2022/03/18 05:21:35;;;;;;;44.35;26.33;;;12.20;99.90;;;;;;5045437;28;20044;-68
2022/03/18 05:24:02;;;;;;;41.70;23.83;;;12.20;99.90;;;;;;5049860;28;20127;-69
2022/03/18 05:26:28;;;;;;;41.33;24.33;;;12.20;99.90;;;;;;5053325;28;20115;-68
2022/03/18 05:28:53;;;;;;;38.05;22.80;;;12.20;99.90;;;;;;5045405;28;20056;-68
2022/03/18 05:31:19;;;;;;;40.50;23.45;;;12.20;99.90;;;;;;5066784;28;20029;-69
2022/03/18 05:33:45;;;;;;;40.78;24.33;;;12.20;99.90;;;;;;5047076;28;20029;-69
2022/03/18 05:36:11;;;;;;;43.08;25.00;;;12.10;99.90;;;;;;5050091;28;20060;-69
2022/03/18 05:38:36;;;;;;;42.42;25.15;;;12.10;99.90;;;;;;5046479;28;20489;-69
2022/03/18 05:41:02;;;;;;;39.72;23.85;;;12.10;99.90;;;;;;5043911;28;20092;-69
2022/03/18 05:43:28;;;;;;;41.40;24.75;;;12.10;99.90;;;;;;5046101;28;20447;-69
2022/03/18 05:45:54;;;;;;;41.10;24.52;;;12.10;99.90;;;;;;5043868;28;20302;-69
2022/03/18 05:48:20;;;;;;;45.30;24.42;;;12.10;99.90;;;;;;5048726;28;20087;-69
2022/03/18 05:50:46;;;;;;;43.17;24.17;;;12.10;99.90;;;;;;5046539;28;20029;-69
2022/03/18 05:53:12;;;;;;;42.53;26.02;;;12.10;99.90;;;;;;5044017;28;20033;-69
2022/03/18 05:58:22;;;;;;;46.53;25.27;;;12.10;99.90;;;;;;5048146;28;20523;-68
2022/03/18 06:00:48;;;;;;;46.95;25.67;;;12.10;99.90;;;;;;5047143;28;20029;-70
2022/03/18 06:03:14;;;;;;;45.22;26.33;;;12.10;99.90;;;;;;5043772;28;20087;-69
2022/03/18 06:05:42;;;;;;;45.42;25.33;;;12.10;99.90;;;;;;5049061;28;20071;-70
2022/03/18 06:13:39;;;;;;;42.05;24.00;;;12.10;99.90;;;;;;5047514;28;20152;-71
2022/03/18 06:16:05;;;;;;;47.83;25.63;;;12.10;99.90;;;;;;5041135;28;20489;-71
2022/03/18 06:18:31;;;;;;;47.15;23.98;;;12.20;99.90;;;;;;5051774;28;20596;-70
2022/03/18 06:20:57;;;;;;;46.28;24.77;;;12.10;99.90;;;;;;5044087;28;20048;-70
2022/03/18 06:23:22;;;;;;;50.42;27.60;;;12.20;99.90;;;;;;5043613;28;20513;-70
2022/03/18 06:25:48;;;;;;;48.55;26.05;;;12.20;99.90;;;;;;5046830;28;20036;-70
2022/03/18 06:28:14;;;;;;;50.53;27.77;;;12.20;99.90;;;;;;5048438;28;20048;-71
2022/03/18 06:30:40;;;;;;;46.88;26.92;;;12.20;99.90;;;;;;5041335;28;20025;-71
2022/03/18 06:33:05;;;;;;;50.00;28.83;;;12.20;99.90;;;;;;5051573;28;20107;-71
2022/03/18 06:35:31;;;;;;;50.38;29.17;;;12.20;99.90;;;;;;5039395;28;20052;-70
2022/03/18 06:37:57;;;;;;;47.67;28.85;;;12.20;99.90;;;;;;5044416;28;20029;-71
2022/03/18 06:40:23;;;;;;;46.75;31.52;;;12.20;99.90;;;;;;5046249;28;20075;-71
2022/03/18 06:42:48;;;;;;;51.08;31.25;;;12.20;99.90;;;;;;5045562;28;20032;-72
2022/03/18 06:45:14;;;;;;;46.05;28.48;;;12.30;99.90;;;;;;5050669;28;20033;-72
2022/03/18 06:47:40;;;;;;;48.50;27.77;;;12.30;99.90;;;;;;5046463;28;20025;-71
2022/03/18 06:50:06;;;;;;;44.08;29.35;;;12.20;99.90;;;;;;5043494;28;20104;-71
2022/03/18 06:52:32;;;;;;;48.70;29.42;;;12.20;99.90;;;;;;5048282;28;20057;-71
2022/03/18 06:54:59;;;;;;;44.45;26.83;;;12.30;99.90;;;;;;5044859;28;20609;-71
2022/03/18 06:57:24;;;;;;;44.00;25.38;;;12.30;99.90;;;;;;5050033;28;20021;-70
2022/03/18 06:59:50;;;;;;;46.92;24.38;;;12.30;99.90;;;;;;5051010;28;20028;-69
2022/03/18 07:02:16;;;;;;;42.47;24.40;;;12.30;99.90;;;;;;5046985;28;20086;-70
2022/03/18 07:04:42;;;;;;;43.33;23.55;;;12.40;99.90;;;;;;5049954;28;20029;-71
2022/03/18 07:07:08;;;;;;;44.35;24.00;;;12.30;99.90;;;;;;5045484;28;20052;-70
2022/03/18 07:09:33;;;;;;;41.80;23.10;;;12.40;99.90;;;;;;5052944;28;20517;-71
2022/03/18 07:12:00;;;;;;;42.90;24.08;;;12.40;99.90;;;;;;5053277;28;20032;-72
2022/03/18 07:14:26;;;;;;;38.33;22.17;;;12.30;99.90;;;;;;5047827;28;20557;-70
2022/03/18 07:19:38;;;;;;;;;;;12.40;99.90;;;;;;5048438;28;20043;-70
2022/03/18 07:22:07;;;;;;;42.13;22.73;;;12.40;99.90;;;;;;5047427;28;20339;-69
2022/03/18 07:24:33;;;;;;;42.05;22.90;;;12.40;99.90;;;;;;5051274;28;20018;-71
2022/03/18 07:26:58;;;;;;;43.08;24.35;;;12.40;99.90;;;;;;5051083;28;20029;-70
2022/03/18 07:29:24;;;;;;;40.95;24.33;;;12.40;99.90;;;;;;5046390;28;20021;-70
2022/03/18 07:31:54;;;;;;;43.72;23.88;;;12.40;99.90;;;;;;5046321;28;20477;-69
2022/03/18 07:34:23;;;;;;;40.08;23.80;;;12.40;99.90;;;;;;5046583;28;20060;-70
2022/03/18 07:36:50;;;;;;;41.53;23.63;;;12.50;99.90;;;;;;5054392;28;20115;-70
2022/03/18 07:39:16;;;;;;;40.88;24.77;;;12.50;99.90;;;;;;5053096;28;20466;-72
2022/03/18 07:41:42;;;;;;;40.92;24.38;;;12.50;99.90;;;;;;5046793;28;20021;-70
2022/03/18 07:44:08;;;;;;;41.28;24.42;;;12.50;99.90;;;;;;5043440;28;20443;-70
2022/03/18 07:46:34;;;;;;;42.85;24.30;;;12.50;99.90;;;;;;5053378;28;20025;-70
2022/03/18 07:49:01;;;;;;;41.13;24.63;;;12.50;99.90;;;;;;5055142;28;20087;-70
2022/03/18 07:51:27;;;;;;;42.92;25.33;;;12.60;99.90;;;;;;5043930;28;20021;-70
2022/03/18 07:53:53;;;;;;;41.17;23.67;;;12.60;99.90;;;;;;5048464;28;20503;-69
2022/03/18 07:56:18;;;;;;;45.60;24.17;;;12.50;99.90;;;;;;5045496;28;20093;-70
2022/03/18 07:58:44;;;;;;;39.90;23.92;;;12.60;99.90;;;;;;5045958;28;20028;-69
2022/03/18 08:01:10;;;;;;;43.25;23.75;;;12.60;99.90;;;;;;5071939;22;20060;-83
2022/03/18 08:03:36;;;;;;;39.30;24.27;;;12.60;99.90;;;;;;5038145;28;20017;-82
2022/03/18 08:06:02;;;;;;;40.83;22.75;;;12.60;99.90;;;;;;5048997;28;20087;-82
2022/03/18 08:08:29;;;;;;;38.05;24.10;;;12.70;99.90;;;;;;5043311;28;20025;-85
2022/03/18 08:10:55;;;;;;;37.85;23.45;;;12.70;99.90;;;;;;5050179;28;20036;-84
2022/03/18 08:13:21;;;;;;;41.58;23.75;;;12.70;99.90;;;;;;5049582;28;20497;-83
2022/03/18 08:15:47;;;;;;;38.28;23.35;;;12.70;99.90;;;;;;5051629;28;20485;-83
2022/03/18 08:18:13;;;;;;;38.40;22.60;;;12.70;99.90;;;;;;5041697;28;20021;-82
2022/03/18 08:20:40;;;;;;;40.63;22.83;;;12.70;99.90;;;;;;5041413;28;20044;-83
2022/03/18 08:23:14;;;;;;;37.33;22.05;;;12.80;99.90;;;;;;5040947;28;20498;-83
2022/03/18 08:25:40;;;;;;;42.33;23.77;;;12.90;99.90;;;;;;5045235;28;20083;-83
2022/03/18 08:28:07;;;;;;;39.30;24.17;;;12.80;99.90;;;;;;5040109;28;20482;-82
2022/03/18 08:30:33;;;;;;;40.08;25.83;;;12.90;99.90;;;;;;5046657;28;20021;-82
2022/03/18 08:32:59;;;;;;;40.95;25.02;;;12.90;99.90;;;;;;5046636;28;20028;-83
2022/03/18 08:35:25;;;;;;;38.92;24.10;;;12.90;99.90;;;;;;5040962;28;20037;-84
2022/03/18 08:37:57;;;;;;;39.83;24.55;;;13.00;99.90;;;;;;5048617;28;20478;-82
2022/03/18 08:40:33;;;;;;;39.80;24.50;;;13.00;99.90;;;;;;5050837;28;20123;-84
2022/03/18 08:43:00;;;;;;;40.00;25.67;;;13.00;99.90;;;;;;5049331;28;20041;-76
2022/03/18 08:45:27;;;;;;;42.17;25.40;;;13.10;99.90;;;;;;5043610;28;20036;-89
2022/03/18 08:47:54;;;;;;;42.00;25.30;;;13.10;99.90;;;;;;5046433;28;20025;-81
2022/03/18 08:50:23;;;;;;;41.67;25.88;;;13.20;99.90;;;;;;5046143;28;20032;-81
2022/03/18 08:52:51;;;;;;;38.30;23.90;;;13.30;99.90;;;;;;5047337;28;20441;-80
2022/03/18 08:55:17;;;;;;;44.85;26.10;;;13.20;99.90;;;;;;5051690;28;20029;-81
2022/03/18 08:57:43;;;;;;;44.50;26.05;;;13.30;99.90;;;;;;5048711;28;20079;-81
2022/03/18 09:00:14;;;;;;;40.40;25.25;;;13.30;99.90;;;;;;5045578;28;20104;-81
2022/03/18 09:02:40;;;;;;;38.47;24.60;;;13.30;99.90;;;;;;5046984;28;20072;-82
2022/03/18 09:05:10;;;;;;;40.63;23.65;;;13.30;99.90;;;;;;5042012;28;20461;-82
2022/03/18 09:07:37;;;;;;;42.40;22.50;;;13.40;99.90;;;;;;5045505;28;20585;-81
2022/03/18 09:10:04;;;;;;;39.40;23.58;;;13.40;99.90;;;;;;5044355;28;20033;-82
2022/03/18 09:12:30;;;;;;;35.45;23.30;;;13.40;99.90;;;;;;5041409;28;20029;-82
2022/03/18 09:14:56;;;;;;;37.22;22.70;;;13.40;99.90;;;;;;5041399;28;20036;-81
2022/03/18 09:17:22;;;;;;;41.95;23.65;;;13.50;99.90;;;;;;5039689;28;20044;-81
2022/03/18 09:19:48;;;;;;;37.67;22.15;;;13.50;99.90;;;;;;5049656;28;20477;-79
2022/03/18 09:22:16;;;;;;;39.90;23.80;;;13.50;99.90;;;;;;5044618;28;20029;-80
2022/03/18 09:24:44;;;;;;;40.78;23.88;;;13.60;99.90;;;;;;5047854;28;20029;-79
2022/03/18 09:27:10;;;;;;;38.38;23.48;;;13.60;99.90;;;;;;5047621;28;20028;-80
2022/03/18 09:29:39;;;;;;;36.35;22.90;;;13.60;99.90;;;;;;5047636;28;20437;-82
2022/03/18 09:32:06;;;;;;;38.05;22.60;;;13.50;99.90;;;;;;5041978;28;20120;-81
2022/03/18 09:34:32;;;;;;;41.40;23.15;;;13.60;99.90;;;;;;5044059;28;20052;-81
2022/03/18 09:36:58;;;;;;;35.38;21.88;;;13.60;99.90;;;;;;5042591;28;20052;-81
2022/03/18 09:39:26;;;;;;;36.92;21.55;;;13.60;99.90;;;;;;5046797;28;20394;-82
2022/03/18 09:41:53;;;;;;;40.97;28.90;;;13.70;99.90;;;;;;5048026;28;20513;-82
2022/03/18 09:44:19;;;;;;;39.38;26.77;;;13.70;99.90;;;;;;5047340;28;20033;-81
2022/03/18 09:46:49;;;;;;;42.95;27.63;;;13.80;99.90;;;;;;5048668;28;20040;-82
2022/03/18 09:49:17;;;;;;;38.38;24.98;;;13.90;99.90;;;;;;5046447;28;20032;-82
2022/03/18 09:51:43;;;;;;;38.42;24.38;;;13.90;99.90;;;;;;5040686;28;20501;-81
2022/03/18 09:54:11;;;;;;;39.13;24.35;;;13.90;99.90;;;;;;5047155;28;20037;-82
2022/03/18 09:56:42;;;;;;;38.17;25.30;;;14.00;99.90;;;;;;5047808;28;20071;-81
2022/03/18 09:59:08;;;;;;;38.97;23.70;;;14.00;99.90;;;;;;5047440;28;20025;-82
2022/03/18 10:01:35;;;;;;;39.85;24.33;;;14.00;99.90;;;;;;5048231;28;20053;-82
2022/03/18 10:04:07;;;;;;;36.65;22.05;;;14.10;99.90;;;;;;5047058;28;20029;-82
2022/03/18 10:06:34;;;;;;;37.33;22.40;;;14.10;99.90;;;;;;5046905;28;20036;-82
2022/03/18 10:09:01;;;;;;;32.13;20.75;;;14.20;99.90;;;;;;5046784;28;20098;-81
2022/03/18 10:11:30;;;;;;;37.95;21.40;;;14.20;99.90;;;;;;5046692;28;20037;-81
2022/03/18 10:14:08;;;;;;;35.67;21.40;;;14.20;99.90;;;;;;5048225;28;20107;-82
2022/03/18 10:16:44;;;;;;;35.83;21.10;;;14.30;99.90;;;;;;5047332;28;20111;-82
2022/03/18 10:19:11;;;;;;;39.40;21.85;;;14.40;99.90;;;;;;5047205;28;20163;-82
2022/03/18 10:22:00;;;;;;;35.33;19.90;;;14.50;99.90;;;;;;5045776;28;20482;-82
2022/03/18 10:24:37;;;;;;;37.33;21.00;;;14.50;99.90;;;;;;5045614;28;20021;-82
2022/03/18 10:27:20;;;;;;;36.55;20.38;;;14.50;99.90;;;;;;5046703;28;20021;-82
2022/03/18 10:29:46;;;;;;;31.65;18.88;;;14.60;99.90;;;;;;5046913;28;20044;-82
2022/03/18 10:32:14;;;;;;;33.72;19.42;;;14.70;99.90;;;;;;5048265;28;20108;-81
2022/03/18 10:37:49;;;;;;;33.58;19.77;;;14.80;99.90;;;;;;5049176;28;20051;-82
2022/03/18 10:40:30;;;;;;;34.03;19.30;;;14.90;99.90;;;;;;5048816;28;20033;-81
2022/03/18 10:43:02;;;;;;;32.42;19.05;;;15.00;99.90;;;;;;5046496;28;20033;-82
2022/03/18 10:45:28;;;;;;;33.22;18.30;;;15.00;99.90;;;;;;5049598;28;20405;-81
2022/03/18 10:47:54;;;;;;;31.33;17.85;;;15.10;99.90;;;;;;5049467;28;20409;-82
2022/03/18 10:50:23;;;;;;;29.65;18.70;;;15.10;99.90;;;;;;5049749;28;20107;-82
2022/03/18 10:52:49;;;;;;;32.22;19.42;;;15.20;99.90;;;;;;5051356;28;20437;-81
2022/03/18 10:55:19;;;;;;;32.10;18.75;;;15.30;99.90;;;;;;5047692;28;20029;-80
2022/03/18 10:57:54;;;;;;;32.00;17.48;;;15.40;99.90;;;;;;5049657;28;20088;-80
2022/03/18 11:00:23;;;;;;;33.80;20.33;;;15.50;99.90;;;;;;5049091;28;20412;-80
2022/03/18 11:02:53;;;;;;;32.72;18.55;;;15.50;99.90;;;;;;5048742;28;20133;-80
2022/03/18 11:05:22;;;;;;;33.92;18.80;;;15.70;99.90;;;;;;5050465;28;20122;-80
2022/03/18 11:07:51;;;;;;;32.10;18.77;;;15.80;99.90;;;;;;5050825;28;20151;-81
2022/03/18 11:13:04;;;;;;;30.98;18.73;;;15.90;99.90;;;;;;5042406;28;20078;-80
2022/03/18 11:15:32;;;;;;;32.47;18.98;;;16.00;99.90;;;;;;5045819;28;20045;-81
2022/03/18 11:17:58;;;;;;;32.45;20.25;;;16.00;99.90;;;;;;5047797;28;20032;-80
2022/03/18 11:20:27;;;;;;;32.05;20.70;;;16.10;99.90;;;;;;5048159;28;20345;-80
2022/03/18 11:22:57;;;;;;;35.22;20.40;;;16.10;99.90;;;;;;5050706;28;20025;-81
2022/03/18 11:25:23;;;;;;;32.85;18.75;;;16.20;99.90;;;;;;5049541;28;20041;-85
2022/03/18 11:27:51;;;;;;;31.80;18.27;;;16.30;99.90;;;;;;5051473;28;20032;-89
2022/03/18 11:30:28;;;;;;;37.20;18.30;;;16.40;99.90;;;;;;5052134;28;20029;-89
2022/03/18 11:33:06;;;;;;;30.20;16.90;;;16.50;99.90;;;;;;5049685;28;20116;-90
2022/03/18 11:35:50;;;;;;;31.92;18.27;;;16.60;99.90;;;;;;5048894;28;20033;-89
2022/03/18 11:38:25;;;;;;;32.00;18.30;;;16.70;99.90;;;;;;5048970;28;20077;-89
2022/03/18 11:40:51;;;;;;;28.40;18.40;;;16.70;99.90;;;;;;5054371;28;20029;-86
2022/03/18 11:43:32;;;;;;;31.20;17.77;;;16.70;99.90;;;;;;5050284;28;20032;-91
2022/03/18 11:46:27;;;;;;;28.83;17.80;;;16.90;99.90;;;;;;5047026;28;20036;-91
2022/03/18 11:48:57;;;;;;;29.52;18.38;;;17.10;99.90;;;;;;5051752;28;20037;-91
2022/03/18 11:51:24;;;;;;;28.08;17.60;;;17.20;99.90;;;;;;5051106;28;20158;-88
2022/03/18 11:53:54;;;;;;;32.38;17.27;;;17.20;99.90;;;;;;5044047;28;20023;-80
2022/03/18 11:56:39;;;;;;;28.58;16.27;;;17.20;99.90;;;;;;5044982;28;20489;-83
2022/03/18 11:59:27;;;;;;;35.15;17.48;;;17.30;99.90;;;;;;5065422;28;20029;-83
2022/03/18 12:01:54;;;;;;;30.45;17.35;;;17.30;99.90;;;;;;5046955;28;20077;-79
2022/03/18 12:04:40;;;;;;;29.55;17.85;;;17.30;99.90;;;;;;5050513;28;20025;-78
2022/03/18 12:07:13;;;;;;;27.35;17.08;;;17.30;99.90;;;;;;5050533;28;20056;-80
2022/03/18 12:10:00;;;;;;;28.90;17.75;;;17.30;99.90;;;;;;5050263;28;20111;-80
2022/03/18 12:12:36;;;;;;;32.17;18.35;;;17.40;99.90;;;;;;5047988;28;20022;-82
2022/03/18 12:15:09;;;;;;;31.48;17.50;;;17.60;99.90;;;;;;5046029;28;20037;-81
2022/03/18 12:17:49;;;;;;;28.40;17.17;;;17.80;99.90;;;;;;5047011;28;20051;-81
2022/03/18 12:20:42;;;;;;;35.80;17.10;;;17.90;99.90;;;;;;5050374;28;20489;-82
2022/03/18 12:23:09;;;;;;;29.30;17.53;;;18.00;99.90;;;;;;5046989;28;20033;-83
2022/03/18 12:25:36;;;;;;;28.65;17.67;;;17.80;99.90;;;;;;5049653;28;20394;-81
2022/03/18 12:28:03;;;;;;;30.80;16.92;;;17.70;99.90;;;;;;5044300;28;20060;-82
2022/03/18 12:30:30;;;;;;;32.15;16.65;;;17.70;99.90;;;;;;5050533;28;20025;-82
2022/03/18 12:33:06;;;;;;;26.80;17.95;;;17.60;99.90;;;;;;5052597;28;20039;-82
2022/03/18 12:35:36;;;;;;;26.83;16.23;;;17.50;99.90;;;;;;5051127;28;20033;-86
2022/03/18 12:38:13;;;;;;;30.95;16.75;;;17.30;99.90;;;;;;5049722;28;20033;-80
2022/03/18 12:41:03;;;;;;;28.33;16.98;;;17.20;99.90;;;;;;5049505;28;20394;-80
2022/03/18 12:43:31;;;;;;;28.08;16.85;;;17.00;99.90;;;;;;5049996;28;20037;-79
2022/03/18 12:45:58;;;;;;;30.92;18.20;;;16.90;99.90;;;;;;5046720;28;20041;-80
2022/03/18 12:48:24;;;;;;;29.60;17.13;;;16.70;99.90;;;;;;5047705;28;20025;-79
2022/03/18 12:50:57;;;;;;;30.25;17.45;;;16.70;99.90;;;;;;5048405;28;20033;-79
2022/03/18 12:53:24;;;;;;;29.30;17.63;;;16.70;99.90;;;;;;5044054;28;20513;-81
2022/03/18 12:55:59;;;;;;;31.60;17.90;;;16.60;99.90;;;;;;5045937;28;20040;-82